Time;durP1;ratioP1;P1;durP2;ratioP2;P2;SDS_P1;SDS_P2;PMS_P1;PMS_P2;Temp;Humidity;BMP_temperature;BMP_pressure;BME280_temperature;BME280_humidity;BME280_pressure;Samples;Min_cycle;Max_cycle;Signal;HPM_P1;HPM_P2
2023/10/14 00:01:48;;;;;;;4.90;1.10;;;16.00;99.90;;;;;;5090927;28;20075;-76
2023/10/14 00:04:21;;;;;;;5.32;0.95;;;16.00;99.90;;;;;;5077408;28;20020;-76
2023/10/14 00:06:47;;;;;;;8.95;1.50;;;15.90;99.90;;;;;;5090552;28;20529;-77
2023/10/14 00:09:13;;;;;;;7.65;1.33;;;15.90;99.90;;;;;;5090407;28;20024;-77
2023/10/14 00:11:43;;;;;;;7.20;1.20;;;15.90;99.90;;;;;;5090866;28;20027;-77
2023/10/14 00:14:18;;;;;;;8.15;1.40;;;15.80;99.90;;;;;;5088847;28;20028;-77
2023/10/14 00:16:54;;;;;;;3.90;1.23;;;15.70;99.90;;;;;;5090772;28;20471;-77
2023/10/14 00:19:21;;;;;;;6.22;1.20;;;15.70;99.90;;;;;;5090570;28;20028;-77
2023/10/14 00:21:51;;;;;;;3.60;1.13;;;15.70;99.90;;;;;;5089341;28;20027;-76
2023/10/14 00:24:28;;;;;;;9.20;1.13;;;15.60;99.90;;;;;;5090251;28;20061;-76
2023/10/14 00:26:55;;;;;;;14.88;1.70;;;15.60;99.90;;;;;;5090493;28;20024;-76
2023/10/14 00:29:21;;;;;;;7.00;1.60;;;15.60;99.90;;;;;;5088974;28;20052;-77
2023/10/14 00:31:48;;;;;;;5.57;1.33;;;15.60;99.90;;;;;;5090318;28;20506;-76
2023/10/14 00:34:14;;;;;;;7.82;1.30;;;15.50;99.90;;;;;;5089870;28;20030;-76
2023/10/14 00:36:41;;;;;;;6.88;1.42;;;15.50;99.90;;;;;;5090511;28;20019;-76
2023/10/14 00:39:12;;;;;;;7.38;1.30;;;15.50;99.90;;;;;;5088629;28;20511;-76
2023/10/14 00:41:44;;;;;;;4.63;1.25;;;15.50;99.90;;;;;;5090413;28;20508;-76
2023/10/14 00:44:13;;;;;;;6.78;1.60;;;15.50;99.90;;;;;;5089824;28;20024;-76
2023/10/14 00:46:42;;;;;;;2.85;0.88;;;15.50;99.90;;;;;;5090626;28;20099;-76
2023/10/14 00:49:10;;;;;;;6.30;1.60;;;15.50;99.90;;;;;;5089937;28;20055;-76
2023/10/14 00:51:42;;;;;;;6.32;1.92;;;15.40;99.90;;;;;;5088998;28;20059;-76
2023/10/14 00:54:11;;;;;;;6.90;1.58;;;15.40;99.90;;;;;;5089965;28;20016;-76
2023/10/14 00:56:40;;;;;;;4.78;1.60;;;15.40;99.90;;;;;;5088985;28;20016;-76
2023/10/14 00:59:07;;;;;;;3.28;1.15;;;15.40;99.90;;;;;;5088429;28;20061;-76
2023/10/14 01:01:50;;;;;;;9.13;1.60;;;15.40;99.90;;;;;;5089135;28;20048;-76
2023/10/14 01:04:20;;;;;;;8.90;1.70;;;15.30;99.90;;;;;;5075875;28;20485;-75
2023/10/14 01:12:17;;;;;;;5.25;1.33;;;15.40;99.90;;;;;;5090159;28;20071;-75
2023/10/14 01:14:46;;;;;;;8.07;1.90;;;15.40;99.90;;;;;;5090162;28;20024;-76
2023/10/14 01:19:54;;;;;;;7.68;1.50;;;15.40;99.90;;;;;;5092985;28;20043;-75
2023/10/14 01:22:20;;;;;;;12.02;1.60;;;15.40;99.90;;;;;;5093622;28;20211;-75
2023/10/14 01:24:46;;;;;;;6.97;1.48;;;15.30;99.90;;;;;;5092279;28;20052;-75
2023/10/14 01:27:13;;;;;;;12.63;1.73;;;15.30;99.90;;;;;;5092553;28;20020;-75
2023/10/14 01:29:40;;;;;;;8.68;1.67;;;15.30;99.90;;;;;;5093558;28;20020;-75
2023/10/14 01:35:12;;;;;;;5.72;1.67;;;15.20;99.90;;;;;;5093843;28;20031;-75
2023/10/14 01:37:40;;;;;;;9.93;1.70;;;15.10;99.90;;;;;;5093205;28;20066;-75
2023/10/14 01:42:48;;;;;;;13.38;2.13;;;15.10;99.90;;;;;;5093213;28;20035;-75
2023/10/14 01:45:20;;;;;;;8.48;1.55;;;15.00;99.90;;;;;;5093469;28;20024;-75
2023/10/14 01:47:49;;;;;;;8.90;1.77;;;15.00;99.90;;;;;;5092977;28;20024;-75
2023/10/14 01:50:14;;;;;;;10.50;2.17;;;15.00;99.90;;;;;;5093183;28;20028;-75
2023/10/14 01:52:41;;;;;;;6.60;1.88;;;15.00;99.90;;;;;;5091550;28;20092;-75
2023/10/14 01:55:09;;;;;;;11.88;1.90;;;14.90;99.90;;;;;;5093204;28;20024;-75
2023/10/14 01:57:36;;;;;;;13.02;1.92;;;14.90;99.90;;;;;;5092980;28;20024;-75
2023/10/14 02:00:39;;;;;;;14.27;2.20;;;14.80;99.90;;;;;;5093208;28;20467;-74
2023/10/14 02:03:06;;;;;;;9.52;1.80;;;14.80;99.90;;;;;;5080696;28;20028;-75
2023/10/14 02:05:41;;;;;;;11.10;2.42;;;14.70;99.90;;;;;;5093139;28;20032;-75
2023/10/14 02:08:16;;;;;;;8.68;2.22;;;14.70;99.90;;;;;;5092434;28;20032;-75
2023/10/14 02:10:54;;;;;;;9.35;2.10;;;14.60;99.90;;;;;;5093146;28;20015;-75
2023/10/14 02:13:22;;;;;;;11.23;2.00;;;14.60;99.90;;;;;;5092498;28;20020;-75
2023/10/14 02:15:50;;;;;;;13.82;2.42;;;14.60;99.90;;;;;;5092864;28;20043;-75
2023/10/14 02:18:22;;;;;;;11.90;2.05;;;14.60;99.90;;;;;;5092306;28;20032;-74
2023/10/14 02:20:57;;;;;;;14.52;2.40;;;14.60;99.90;;;;;;5091470;28;20024;-75
2023/10/14 02:23:28;;;;;;;11.63;2.33;;;14.60;99.90;;;;;;5092329;28;20020;-74
2023/10/14 02:25:57;;;;;;;;;;;14.60;99.90;;;;;;5093161;28;20058;-74
2023/10/14 02:28:27;;;;;;;8.88;2.67;;;14.60;99.90;;;;;;5092092;28;19926;-74
2023/10/14 02:30:53;;;;;;;18.67;2.38;;;14.50;99.90;;;;;;5092455;28;20028;-74
2023/10/14 02:33:22;;;;;;;12.30;2.30;;;14.50;99.90;;;;;;5091823;28;20043;-74
2023/10/14 02:35:48;;;;;;;15.00;2.55;;;14.40;99.90;;;;;;5092733;28;20024;-74
2023/10/14 02:38:17;;;;;;;11.52;2.53;;;14.40;99.90;;;;;;5091921;28;20024;-74
2023/10/14 02:40:43;;;;;;;8.60;1.85;;;14.40;99.90;;;;;;5092500;28;20517;-74
2023/10/14 02:43:08;;;;;;;11.77;2.15;;;14.40;99.90;;;;;;5091480;28;20024;-75
2023/10/14 02:45:39;;;;;;;12.25;2.45;;;14.30;99.90;;;;;;5092355;28;20051;-74
2023/10/14 02:48:05;;;;;;;12.00;2.25;;;14.30;99.90;;;;;;5091769;28;20478;-74
2023/10/14 02:50:32;;;;;;;15.65;2.95;;;14.20;99.90;;;;;;5092262;28;20153;-74
2023/10/14 02:53:06;;;;;;;11.65;2.17;;;14.20;99.90;;;;;;5090159;28;20058;-74
2023/10/14 02:58:20;;;;;;;12.63;1.92;;;14.10;99.90;;;;;;5091850;28;20027;-74
2023/10/14 03:00:49;;;;;;;14.25;2.30;;;14.00;99.90;;;;;;5090740;28;20402;-74
2023/10/14 03:03:15;;;;;;;14.30;2.65;;;14.00;99.90;;;;;;5091813;28;20024;-74
2023/10/14 03:05:51;;;;;;;12.45;1.90;;;13.90;99.90;;;;;;5092461;28;20070;-74
2023/10/14 03:08:18;;;;;;;13.20;2.97;;;13.90;99.90;;;;;;5091300;28;20024;-74
2023/10/14 03:10:45;;;;;;;15.00;2.38;;;13.80;99.90;;;;;;5091857;28;20543;-74
2023/10/14 03:13:14;;;;;;;18.02;3.15;;;13.70;99.90;;;;;;5091081;28;20489;-74
2023/10/14 03:15:47;;;;;;;15.70;2.40;;;13.70;99.90;;;;;;5091881;28;20023;-75
2023/10/14 03:18:16;;;;;;;11.73;2.55;;;13.60;99.90;;;;;;5091683;28;20028;-74
2023/10/14 03:21:08;;;;;;;12.73;1.90;;;13.50;99.90;;;;;;5092063;28;20047;-74
2023/10/14 03:23:28;;;;;;;13.15;2.33;;;13.50;99.90;;;;;;5090732;28;20028;-74
2023/10/14 03:26:14;;;;;;;14.27;2.22;;;13.40;99.90;;;;;;5091736;28;20028;-74
2023/10/14 03:28:44;;;;;;;15.20;2.25;;;13.40;99.90;;;;;;5091447;28;20028;-74
2023/10/14 03:31:14;;;;;;;10.85;2.15;;;13.30;99.90;;;;;;5091541;28;20047;-73
2023/10/14 03:33:43;;;;;;;11.93;2.15;;;13.30;99.90;;;;;;5090549;28;20047;-74
2023/10/14 03:36:15;;;;;;;14.32;2.55;;;13.20;99.90;;;;;;5090022;28;20031;-74
2023/10/14 03:38:42;;;;;;;14.43;2.15;;;13.20;99.90;;;;;;5090795;28;20150;-74
2023/10/14 03:41:21;;;;;;;14.90;2.45;;;13.10;99.90;;;;;;5090947;28;20028;-74
2023/10/14 03:46:32;;;;;;;21.42;3.30;;;13.00;99.90;;;;;;5091466;28;20039;-74
2023/10/14 03:49:06;;;;;;;13.48;1.70;;;13.00;99.90;;;;;;5076879;28;20054;-73
2023/10/14 03:51:33;;;;;;;12.27;2.72;;;12.90;99.90;;;;;;5091067;28;20039;-74
2023/10/14 03:54:09;;;;;;;14.27;2.63;;;12.90;99.90;;;;;;5090342;28;20091;-74
2023/10/14 03:56:35;;;;;;;13.85;2.83;;;12.80;99.90;;;;;;5091002;28;20028;-73
2023/10/14 03:59:02;;;;;;;10.73;2.30;;;12.70;99.90;;;;;;5090407;28;20040;-73
2023/10/14 04:04:17;;;;;;;14.75;2.42;;;12.60;99.90;;;;;;5090900;28;20032;-74
2023/10/14 04:06:51;;;;;;;15.18;2.08;;;12.60;99.90;;;;;;5090957;28;20497;-74
2023/10/14 04:09:23;;;;;;;16.48;3.05;;;12.60;99.90;;;;;;5089108;28;20047;-73
2023/10/14 04:11:58;;;;;;;12.30;2.25;;;12.60;99.90;;;;;;5090933;28;20089;-74
2023/10/14 04:14:27;;;;;;;12.15;2.13;;;12.50;99.90;;;;;;5090580;28;20020;-74
2023/10/14 04:19:57;;;;;;;12.05;2.40;;;12.50;99.90;;;;;;5027486;28;20025;-74
2023/10/14 04:22:32;;;;;;;17.60;2.65;;;12.50;99.90;;;;;;5027964;28;20084;-74
2023/10/14 04:27:45;;;;;;;13.35;1.85;;;12.40;99.90;;;;;;5027784;28;20050;-73
2023/10/14 04:30:21;;;;;;;12.45;2.25;;;12.40;99.90;;;;;;5010992;28;20034;-74
2023/10/14 04:33:05;;;;;;;13.80;2.20;;;12.40;99.90;;;;;;5027562;28;20180;-73
2023/10/14 04:35:32;;;;;;;10.90;1.88;;;12.30;99.90;;;;;;5015626;28;20029;-73
2023/10/14 04:38:13;;;;;;;14.73;2.60;;;12.30;99.90;;;;;;5027348;28;20523;-73
2023/10/14 04:40:41;;;;;;;17.77;3.20;;;12.30;99.90;;;;;;5027822;28;20037;-74
2023/10/14 04:45:51;;;;;;;12.60;2.28;;;12.20;99.90;;;;;;5027918;28;20591;-73
2023/10/14 04:48:17;;;;;;;15.90;2.10;;;12.20;99.90;;;;;;5027239;28;20073;-74
2023/10/14 04:50:44;;;;;;;13.95;1.90;;;12.20;99.90;;;;;;5007950;28;20030;-74
2023/10/14 04:53:13;;;;;;;14.13;2.20;;;12.20;99.90;;;;;;5016826;28;20036;-73
2023/10/14 04:55:44;;;;;;;17.75;2.70;;;12.20;99.90;;;;;;5094203;28;20542;-73
2023/10/14 05:00:47;;;;;;;12.90;2.20;;;12.10;99.90;;;;;;5094120;28;20028;-74
2023/10/14 05:03:14;;;;;;;23.13;2.60;;;12.10;99.90;;;;;;5093889;28;20062;-73
2023/10/14 05:05:49;;;;;;;15.35;2.60;;;12.00;99.90;;;;;;5092745;28;20039;-73
2023/10/14 05:08:21;;;;;;;18.27;2.38;;;12.00;99.90;;;;;;5092575;28;20024;-73
2023/10/14 05:10:51;;;;;;;12.48;1.80;;;12.00;99.90;;;;;;5092887;28;20508;-73
2023/10/14 05:13:19;;;;;;;12.57;2.60;;;11.90;99.90;;;;;;5093849;28;20020;-73
2023/10/14 05:15:53;;;;;;;11.98;2.22;;;11.90;99.90;;;;;;5092425;28;20078;-73
2023/10/14 05:18:27;;;;;;;15.98;2.20;;;11.90;99.90;;;;;;5093624;28;20020;-73
2023/10/14 05:23:24;;;;;;;12.40;2.00;;;11.80;99.90;;;;;;5093483;28;20028;-74
2023/10/14 05:25:56;;;;;;;17.83;2.97;;;11.80;99.90;;;;;;5092664;28;20389;-73
2023/10/14 05:28:35;;;;;;;14.80;2.80;;;11.80;99.90;;;;;;5093453;28;20047;-74
2023/10/14 05:31:02;;;;;;;14.93;2.33;;;11.80;99.90;;;;;;5093850;28;20063;-74
2023/10/14 05:33:28;;;;;;;16.08;2.63;;;11.80;99.90;;;;;;5092985;28;20036;-73
2023/10/14 05:35:57;;;;;;;9.18;2.13;;;11.80;99.90;;;;;;5093874;28;20027;-73
2023/10/14 05:38:23;;;;;;;13.98;2.75;;;11.80;99.90;;;;;;5091847;28;20470;-73
2023/10/14 05:40:55;;;;;;;11.85;2.08;;;11.70;99.90;;;;;;5093346;28;20066;-73
2023/10/14 05:43:25;;;;;;;17.65;2.13;;;11.70;99.90;;;;;;5093606;28;20347;-73
2023/10/14 05:45:54;;;;;;;13.50;2.30;;;11.50;99.90;;;;;;5081891;28;20058;-73
2023/10/14 05:48:30;;;;;;;13.07;2.08;;;11.50;99.90;;;;;;5093381;28;20035;-73
2023/10/14 05:50:57;;;;;;;12.48;1.80;;;11.40;99.90;;;;;;5093507;28;20066;-73
2023/10/14 05:53:26;;;;;;;16.13;2.60;;;11.40;99.90;;;;;;5092643;28;20048;-73
2023/10/14 05:56:14;;;;;;;14.07;2.85;;;11.40;99.90;;;;;;5093120;28;20048;-73
2023/10/14 05:58:46;;;;;;;15.10;2.08;;;11.40;99.90;;;;;;5092575;28;20486;-73
2023/10/14 06:01:15;;;;;;;23.77;2.80;;;11.40;99.90;;;;;;5092163;28;20028;-73
2023/10/14 06:03:41;;;;;;;12.13;2.30;;;11.40;99.90;;;;;;5092599;28;20030;-73
2023/10/14 06:06:14;;;;;;;14.75;2.13;;;11.50;99.90;;;;;;5092745;28;20048;-73
2023/10/14 06:08:40;;;;;;;15.98;2.17;;;11.50;99.90;;;;;;5092449;28;20506;-73
2023/10/14 06:11:07;;;;;;;14.70;2.25;;;11.50;99.90;;;;;;5093032;28;20028;-73
2023/10/14 06:13:34;;;;;;;15.27;2.55;;;11.40;99.90;;;;;;5092476;28;20020;-73
2023/10/14 06:16:04;;;;;;;23.02;3.20;;;11.50;99.90;;;;;;5093332;28;20020;-74
2023/10/14 06:18:31;;;;;;;17.90;2.47;;;11.50;99.90;;;;;;5091174;28;20035;-73
2023/10/14 06:20:59;;;;;;;11.63;1.67;;;11.50;99.90;;;;;;5092591;28;20087;-73
2023/10/14 06:23:28;;;;;;;16.85;1.98;;;11.50;99.90;;;;;;5092421;28;20024;-73
2023/10/14 06:25:55;;;;;;;19.13;2.50;;;11.50;99.90;;;;;;5091189;28;20032;-73
2023/10/14 06:28:21;;;;;;;17.48;2.80;;;11.50;99.90;;;;;;5092403;28;20069;-74
2023/10/14 06:30:46;;;;;;;9.57;2.10;;;11.50;99.90;;;;;;5092452;28;20390;-75
2023/10/14 06:33:12;;;;;;;13.90;2.03;;;11.50;99.90;;;;;;5090427;28;20058;-73
2023/10/14 06:35:42;;;;;;;19.50;2.67;;;11.50;99.90;;;;;;5085707;28;20072;-73
2023/10/14 06:38:09;;;;;;;17.10;2.67;;;11.50;99.90;;;;;;5088290;28;20020;-73
2023/10/14 06:40:36;;;;;;;17.10;3.15;;;11.60;99.90;;;;;;5085983;28;20027;-73
2023/10/14 06:43:09;;;;;;;14.70;2.30;;;11.60;99.90;;;;;;5086577;28;20036;-73
2023/10/14 06:45:35;;;;;;;16.92;3.05;;;11.60;99.90;;;;;;5091757;28;20024;-73
2023/10/14 06:48:09;;;;;;;18.67;2.83;;;11.50;99.90;;;;;;5084863;28;20027;-73
2023/10/14 06:50:42;;;;;;;15.75;3.83;;;11.60;99.90;;;;;;5086181;28;20024;-73
2023/10/14 06:53:08;;;;;;;20.08;3.17;;;11.50;99.90;;;;;;5095527;28;20492;-73
2023/10/14 06:55:39;;;;;;;18.00;2.80;;;11.50;99.90;;;;;;5091802;28;20024;-73
2023/10/14 06:58:13;;;;;;;15.85;2.30;;;11.50;99.90;;;;;;5083849;28;20088;-73
2023/10/14 07:00:39;;;;;;;15.82;2.40;;;11.50;99.90;;;;;;5089509;28;20047;-73
2023/10/14 07:03:07;;;;;;;15.93;2.35;;;11.50;99.90;;;;;;5081322;28;20025;-73
2023/10/14 07:05:43;;;;;;;12.13;2.50;;;11.50;99.90;;;;;;5080318;28;20016;-73
2023/10/14 07:08:09;;;;;;;16.63;2.50;;;11.50;99.90;;;;;;5086034;28;20157;-73
2023/10/14 07:10:35;;;;;;;11.05;1.90;;;11.50;99.90;;;;;;5089357;28;20032;-73
2023/10/14 07:13:01;;;;;;;17.05;3.00;;;11.50;99.90;;;;;;5082191;28;20036;-73
2023/10/14 07:15:34;;;;;;;17.17;3.33;;;11.60;99.90;;;;;;5089542;28;20016;-73
2023/10/14 07:18:01;;;;;;;18.75;2.50;;;11.60;99.90;;;;;;5090529;28;20441;-73
2023/10/14 07:20:30;;;;;;;14.45;2.33;;;11.60;99.90;;;;;;5091282;28;20028;-73
2023/10/14 07:23:03;;;;;;;17.73;3.05;;;11.60;99.90;;;;;;5089992;28;20490;-74
2023/10/14 07:25:34;;;;;;;22.65;2.60;;;11.60;99.90;;;;;;5090687;28;20111;-73
2023/10/14 07:28:07;;;;;;;21.90;2.95;;;11.70;99.90;;;;;;5086313;28;20402;-73
2023/10/14 07:30:34;;;;;;;20.80;3.05;;;11.70;99.90;;;;;;5070782;28;20021;-73
2023/10/14 07:33:01;;;;;;;15.68;1.98;;;11.70;99.90;;;;;;5090089;28;20498;-73
2023/10/14 07:35:27;;;;;;;16.77;2.15;;;11.70;99.90;;;;;;5090829;28;20043;-73
2023/10/14 07:37:53;;;;;;;17.35;2.80;;;11.80;99.90;;;;;;5091338;28;20532;-73
2023/10/14 07:40:23;;;;;;;17.13;2.72;;;11.80;99.90;;;;;;5091068;28;20091;-73
2023/10/14 07:43:21;;;;;;;17.73;2.92;;;11.90;99.90;;;;;;5091502;28;20069;-73
2023/10/14 07:45:46;;;;;;;13.63;2.50;;;11.90;99.90;;;;;;5087448;28;20104;-73
2023/10/14 07:48:17;;;;;;;16.50;2.72;;;12.00;99.90;;;;;;5091001;28;20397;-73
2023/10/14 07:50:44;;;;;;;17.15;3.30;;;12.00;99.90;;;;;;5088900;28;20631;-73
2023/10/14 07:53:14;;;;;;;14.00;2.78;;;12.10;99.90;;;;;;5097362;28;20027;-73
2023/10/14 07:55:49;;;;;;;14.60;2.33;;;12.10;99.90;;;;;;5090310;28;20024;-73
2023/10/14 07:58:16;;;;;;;17.92;2.78;;;12.10;99.90;;;;;;5091211;28;20024;-73
2023/10/14 08:00:50;;;;;;;15.13;3.97;;;12.20;99.90;;;;;;5091114;28;20008;-73
2023/10/14 08:03:20;;;;;;;13.43;3.03;;;12.30;99.90;;;;;;5094072;28;20027;-73
2023/10/14 08:05:54;;;;;;;18.40;3.10;;;12.30;99.90;;;;;;5094874;28;20073;-73
2023/10/14 08:08:21;;;;;;;17.33;3.00;;;12.40;99.90;;;;;;5098274;28;20277;-73
2023/10/14 08:10:50;;;;;;;15.93;2.53;;;12.40;99.90;;;;;;5091619;28;20367;-73
2023/10/14 08:13:23;;;;;;;20.15;3.30;;;12.50;99.90;;;;;;5083643;28;20079;-72
2023/10/14 08:15:50;;;;;;;14.30;3.05;;;12.60;99.90;;;;;;5080744;28;20023;-73
2023/10/14 08:18:23;;;;;;;21.60;3.42;;;12.60;99.90;;;;;;5085879;28;20028;-72
2023/10/14 08:20:50;;;;;;;15.93;2.92;;;12.70;99.90;;;;;;5086627;28;20032;-73
2023/10/14 08:23:15;;;;;;;25.80;3.83;;;12.70;99.90;;;;;;5099401;28;20184;-73
2023/10/14 08:25:43;;;;;;;16.05;2.63;;;12.70;99.90;;;;;;5086472;28;20553;-73
2023/10/14 08:28:09;;;;;;;15.55;3.55;;;12.80;99.90;;;;;;5087064;28;20387;-73
2023/10/14 08:30:45;;;;;;;17.55;3.03;;;12.80;99.90;;;;;;5075458;28;20025;-72
2023/10/14 08:33:14;;;;;;;19.75;3.33;;;12.90;99.90;;;;;;5086442;28;20036;-72
2023/10/14 08:35:42;;;;;;;23.35;4.35;;;13.00;99.90;;;;;;5082973;28;20020;-73
2023/10/14 08:38:14;;;;;;;22.15;3.50;;;13.00;99.90;;;;;;5089859;28;20019;-73
2023/10/14 08:40:41;;;;;;;14.50;2.60;;;13.10;99.90;;;;;;5077710;28;20394;-72
2023/10/14 08:43:10;;;;;;;15.65;3.38;;;13.10;99.90;;;;;;5088719;28;20558;-73
2023/10/14 08:45:39;;;;;;;20.98;3.47;;;13.20;99.90;;;;;;5088968;28;20039;-73
2023/10/14 08:48:08;;;;;;;15.75;2.83;;;13.20;99.90;;;;;;5076502;28;20694;-72
2023/10/14 08:50:35;;;;;;;14.80;2.55;;;13.20;99.90;;;;;;5098476;28;20031;-73
2023/10/14 08:53:10;;;;;;;13.98;2.30;;;13.20;99.90;;;;;;5095835;28;20017;-73
2023/10/14 08:55:37;;;;;;;17.27;2.13;;;13.30;99.90;;;;;;5073764;28;20029;-74
2023/10/14 08:58:05;;;;;;;20.30;3.15;;;13.30;99.90;;;;;;5081386;28;20427;-74
2023/10/14 09:00:37;;;;;;;16.02;2.65;;;13.30;99.90;;;;;;5089627;28;20017;-73
2023/10/14 09:03:06;;;;;;;11.68;2.67;;;13.40;99.90;;;;;;5090411;28;20382;-74
2023/10/14 09:05:38;;;;;;;15.73;2.45;;;13.50;99.90;;;;;;5072878;28;20117;-73
2023/10/14 09:08:05;;;;;;;19.40;3.67;;;13.60;99.90;;;;;;5071255;28;20043;-73
2023/10/14 09:10:32;;;;;;;17.45;2.83;;;13.60;99.90;;;;;;5082927;28;20021;-74
2023/10/14 09:13:05;;;;;;;10.27;2.42;;;13.60;99.90;;;;;;5090117;28;20016;-73
2023/10/14 09:15:33;;;;;;;20.48;3.03;;;13.70;99.90;;;;;;5087706;28;20012;-73
2023/10/14 09:18:00;;;;;;;15.55;2.97;;;13.80;99.90;;;;;;5099832;28;20421;-73
2023/10/14 09:20:37;;;;;;;16.73;3.58;;;13.90;99.90;;;;;;5079457;28;20794;-73
2023/10/14 09:23:34;;;;;;;12.70;2.25;;;14.00;99.90;;;;;;5074210;28;20031;-73
2023/10/14 09:26:06;;;;;;;13.50;2.30;;;14.10;99.90;;;;;;5085272;28;20020;-73
2023/10/14 09:28:34;;;;;;;12.90;3.17;;;14.20;99.90;;;;;;5088015;28;20497;-73
2023/10/14 09:31:02;;;;;;;12.90;2.50;;;14.20;99.90;;;;;;5087488;28;20498;-73
2023/10/14 09:33:31;;;;;;;13.35;2.42;;;14.20;99.90;;;;;;5087872;28;20047;-73
2023/10/14 09:36:02;;;;;;;8.98;2.08;;;14.30;99.90;;;;;;5088207;28;20050;-72
2023/10/14 09:38:33;;;;;;;16.40;2.97;;;14.40;99.90;;;;;;5089969;28;20497;-73
2023/10/14 09:41:02;;;;;;;;;;;14.50;99.90;;;;;;5092615;28;20024;-73
2023/10/14 09:43:29;;;;;;;16.33;2.70;;;14.50;99.90;;;;;;5094114;28;19904;-72
2023/10/14 09:45:57;;;;;;;15.43;3.17;;;14.50;99.90;;;;;;5091551;28;20081;-73
2023/10/14 09:48:29;;;;;;;16.15;2.78;;;14.60;99.90;;;;;;5092183;28;20478;-73
2023/10/14 09:50:55;;;;;;;17.80;3.03;;;14.60;99.90;;;;;;5092956;28;20032;-72
2023/10/14 09:53:26;;;;;;;13.00;2.55;;;14.80;99.90;;;;;;5093403;28;20024;-73
2023/10/14 09:55:52;;;;;;;;;;;14.80;99.90;;;;;;5093260;28;20107;-73
2023/10/14 09:58:21;;;;;;;13.05;2.28;;;14.90;99.90;;;;;;5093360;28;20338;-73
2023/10/14 10:00:49;;;;;;;12.52;2.35;;;15.00;99.90;;;;;;5092596;28;20070;-73
2023/10/14 10:03:19;;;;;;;9.85;2.25;;;15.00;99.90;;;;;;5093371;28;20505;-73
2023/10/14 10:06:10;;;;;;;13.43;2.50;;;15.10;99.90;;;;;;5092613;28;20545;-73
2023/10/14 10:09:01;;;;;;;12.85;2.78;;;15.10;99.90;;;;;;5093141;28;20258;-73
2023/10/14 10:11:29;;;;;;;12.00;2.33;;;15.20;99.90;;;;;;5078165;28;20054;-73
2023/10/14 10:13:59;;;;;;;9.85;2.53;;;15.20;99.90;;;;;;5097967;28;20035;-73
2023/10/14 10:16:33;;;;;;;11.25;2.25;;;15.20;99.90;;;;;;5096693;28;20020;-72
2023/10/14 10:19:00;;;;;;;11.00;2.45;;;15.20;99.90;;;;;;5087995;28;20023;-73
2023/10/14 10:21:32;;;;;;;10.18;2.42;;;15.30;99.90;;;;;;5096290;28;20473;-72
2023/10/14 10:24:17;;;;;;;12.02;2.42;;;15.30;99.90;;;;;;5102240;28;20074;-72
2023/10/14 10:27:04;;;;;;;15.48;2.50;;;15.30;99.90;;;;;;5092533;28;20051;-73
2023/10/14 10:29:45;;;;;;;6.85;1.55;;;15.20;99.90;;;;;;5085829;28;20044;-73
2023/10/14 10:32:21;;;;;;;11.27;2.00;;;15.00;99.90;;;;;;5086192;28;20056;-73
2023/10/14 10:35:05;;;;;;;6.25;1.58;;;14.80;99.90;;;;;;5091185;28;20024;-74
2023/10/14 10:37:49;;;;;;;8.65;1.63;;;14.50;99.90;;;;;;5090771;28;20071;-73
2023/10/14 10:40:25;;;;;;;10.55;1.90;;;14.30;99.90;;;;;;5079734;28;20085;-72
2023/10/14 10:42:54;;;;;;;10.02;2.10;;;14.00;99.90;;;;;;5088371;28;20025;-72
2023/10/14 10:45:29;;;;;;;10.93;2.78;;;13.80;99.90;;;;;;5088700;28;20032;-72
2023/10/14 10:48:06;;;;;;;8.85;1.60;;;13.60;99.90;;;;;;5084538;28;20076;-72
2023/10/14 10:50:37;;;;;;;9.70;2.13;;;13.50;99.90;;;;;;5090168;28;20035;-73
2023/10/14 10:53:05;;;;;;;10.15;2.03;;;13.50;99.90;;;;;;5090765;28;20028;-72
2023/10/14 10:55:31;;;;;;;7.10;1.73;;;13.60;99.90;;;;;;5091541;28;20103;-72
2023/10/14 10:58:01;;;;;;;9.48;1.77;;;13.70;99.90;;;;;;5088450;28;20537;-72
2023/10/14 11:00:30;;;;;;;10.70;2.50;;;13.90;99.90;;;;;;5089620;28;20028;-72
2023/10/14 11:02:56;;;;;;;10.57;2.60;;;14.00;99.90;;;;;;5091907;28;20028;-72
2023/10/14 11:05:24;;;;;;;12.20;2.97;;;14.20;99.90;;;;;;5088642;28;20486;-72
2023/10/14 11:07:52;;;;;;;10.38;2.22;;;14.30;99.90;;;;;;5088549;28;20521;-73
2023/10/14 11:10:21;;;;;;;9.88;2.45;;;14.40;99.90;;;;;;5091086;28;20500;-73
2023/10/14 11:12:47;;;;;;;15.43;2.65;;;14.50;99.90;;;;;;5081118;28;20056;-72
2023/10/14 11:15:23;;;;;;;11.45;2.28;;;14.50;99.90;;;;;;5076969;22;20637;-73
2023/10/14 11:17:59;;;;;;;11.45;2.83;;;14.60;99.90;;;;;;5045565;28;20025;-72
2023/10/14 11:20:34;;;;;;;14.93;2.88;;;14.60;99.90;;;;;;5048580;28;20036;-74
2023/10/14 11:23:01;;;;;;;13.77;2.80;;;14.70;99.90;;;;;;5032906;28;20422;-73
2023/10/14 11:25:30;;;;;;;12.95;3.08;;;14.80;99.90;;;;;;5046855;28;20057;-73
2023/10/14 11:27:57;;;;;;;8.98;1.98;;;14.90;99.90;;;;;;5051608;28;20043;-74
2023/10/14 11:30:28;;;;;;;8.05;2.00;;;14.90;99.90;;;;;;5051030;28;20033;-73
2023/10/14 11:32:58;;;;;;;10.27;1.75;;;14.90;99.90;;;;;;5049825;28;20108;-73
2023/10/14 11:35:29;;;;;;;13.75;2.00;;;14.70;99.90;;;;;;5049277;28;20637;-73
2023/10/14 11:38:00;;;;;;;8.65;1.75;;;14.50;99.90;;;;;;5047812;28;20028;-73
2023/10/14 11:40:36;;;;;;;8.27;1.65;;;14.40;99.90;;;;;;5049771;28;20048;-73
2023/10/14 11:43:03;;;;;;;8.13;1.73;;;14.30;99.90;;;;;;5063558;28;20083;-73
2023/10/14 11:45:35;;;;;;;8.02;1.55;;;14.20;99.90;;;;;;5047097;28;20024;-73
2023/10/14 11:48:01;;;;;;;7.40;1.45;;;14.20;99.90;;;;;;5047885;28;20025;-72
2023/10/14 11:50:30;;;;;;;4.05;1.50;;;14.20;99.90;;;;;;5031426;28;20025;-72
2023/10/14 11:52:57;;;;;;;7.35;1.67;;;14.20;99.90;;;;;;5050554;28;20048;-73
2023/10/14 11:55:27;;;;;;;6.75;1.73;;;14.30;99.90;;;;;;5032022;28;20241;-73
2023/10/14 11:57:53;;;;;;;8.85;1.77;;;14.40;99.90;;;;;;5050235;28;20483;-73
2023/10/14 12:00:23;;;;;;;13.68;2.03;;;14.50;99.90;;;;;;5043445;28;20111;-74
2023/10/14 12:02:50;;;;;;;9.85;2.33;;;14.60;99.90;;;;;;5025182;28;20158;-73
2023/10/14 12:05:16;;;;;;;11.18;2.10;;;14.70;99.90;;;;;;5036664;28;20047;-73
2023/10/14 12:07:52;;;;;;;12.02;2.60;;;14.80;99.90;;;;;;5050339;28;20020;-73
2023/10/14 12:10:18;;;;;;;13.40;2.15;;;14.90;99.90;;;;;;5049516;28;20078;-73
2023/10/14 12:12:52;;;;;;;16.20;2.63;;;14.90;99.90;;;;;;5049414;28;20033;-73
2023/10/14 12:15:18;;;;;;;9.82;2.05;;;14.90;99.90;;;;;;5045913;28;20108;-73
2023/10/14 12:17:45;;;;;;;9.85;2.38;;;15.00;99.90;;;;;;5047884;28;20082;-73
2023/10/14 12:20:11;;;;;;;11.68;2.22;;;15.00;99.90;;;;;;5043788;28;20094;-72
2023/10/14 12:22:40;;;;;;;12.77;2.80;;;15.10;99.90;;;;;;5049333;28;20303;-72
2023/10/14 12:25:06;;;;;;;13.98;2.97;;;15.10;99.90;;;;;;5049757;28;20115;-72
2023/10/14 12:27:33;;;;;;;8.70;2.33;;;15.10;99.90;;;;;;5050059;28;20479;-73
2023/10/14 12:30:06;;;;;;;13.45;2.17;;;15.20;99.90;;;;;;5049683;28;20024;-72
2023/10/14 12:32:32;;;;;;;15.50;2.40;;;15.20;99.90;;;;;;5046246;28;20401;-73
2023/10/14 12:35:01;;;;;;;12.07;2.22;;;15.20;99.90;;;;;;5049564;28;20021;-73
2023/10/14 12:37:30;;;;;;;9.45;1.65;;;15.30;99.90;;;;;;5049923;28;20502;-73
2023/10/14 12:39:57;;;;;;;8.27;2.35;;;15.30;99.90;;;;;;5049264;28;20052;-73
2023/10/14 12:42:44;;;;;;;14.15;2.78;;;15.30;99.90;;;;;;5044205;28;20402;-73
2023/10/14 12:45:14;;;;;;;7.05;1.77;;;15.30;99.90;;;;;;5042145;28;20176;-73
2023/10/14 12:47:46;;;;;;;8.57;2.30;;;15.30;99.90;;;;;;5034521;28;20029;-72
2023/10/14 12:50:19;;;;;;;12.52;2.33;;;15.30;99.90;;;;;;5034063;28;20029;-72
2023/10/14 12:53:03;;;;;;;10.80;2.63;;;15.20;99.90;;;;;;5048991;28;20067;-73
2023/10/14 12:55:30;;;;;;;8.63;2.30;;;15.10;99.90;;;;;;5047454;28;20016;-73
2023/10/14 12:57:57;;;;;;;9.13;2.13;;;15.10;99.90;;;;;;5047871;28;20036;-73
2023/10/14 13:00:29;;;;;;;8.88;1.73;;;15.10;99.90;;;;;;5028947;28;20513;-73
2023/10/14 13:02:58;;;;;;;6.95;1.95;;;15.10;99.90;;;;;;5047161;28;20025;-73
2023/10/14 13:05:28;;;;;;;9.73;1.98;;;15.20;99.90;;;;;;5047589;28;20025;-73
2023/10/14 13:07:55;;;;;;;6.43;1.60;;;15.20;99.90;;;;;;5041644;28;20034;-73
2023/10/14 13:10:22;;;;;;;6.60;1.70;;;15.30;99.90;;;;;;5048539;28;20024;-73
2023/10/14 13:12:53;;;;;;;11.00;1.85;;;15.40;99.90;;;;;;5049565;28;20509;-73
2023/10/14 13:15:30;;;;;;;9.43;1.90;;;15.40;99.90;;;;;;5051000;28;20707;-71
2023/10/14 13:18:05;;;;;;;9.25;2.00;;;15.50;99.90;;;;;;5053994;28;20025;-73
2023/10/14 13:20:32;;;;;;;7.47;1.85;;;15.60;99.90;;;;;;5053307;28;20032;-72
2023/10/14 13:23:18;;;;;;;8.10;2.33;;;15.70;99.90;;;;;;5035869;28;20021;-72
2023/10/14 13:25:45;;;;;;;11.70;2.25;;;15.80;99.90;;;;;;5052897;28;20553;-73
2023/10/14 13:28:13;;;;;;;9.32;2.03;;;15.80;99.90;;;;;;5035793;28;20025;-73
2023/10/14 13:30:47;;;;;;;5.72;1.17;;;15.90;99.90;;;;;;5035216;28;20032;-72
2023/10/14 13:33:14;;;;;;;9.77;2.33;;;16.00;99.90;;;;;;5053624;28;20029;-73